SBI2566 USPP-ULLI
Flight info
| Callsign | SBI2566 |
|---|---|
| Flight time | 2h 3m |
| Altitude | 34000 |
| Route | GEBSI1L GEBSI M60 APSAS L259 PRIBI P979 BEPOL BEPOL1B |
| Aircraft | A321/M-SDE3FGHIRWY/LB1 |
Departure
| Time | 2026-04-23 11:02 |
|---|---|
| Airport | Perm International Airport (USPP) |
Arrival
| Time | 2026-04-23 13:05 |
|---|---|
| Airport | Pulkovo Airport (ULLI) |
| Time | Latitude | Longitude | Altitude | Speed | Heading |
|---|---|---|---|---|---|
| 2026-04-23 10:11 | 57.91489 | 56.01134 | 393 ft | 0 kts | 316° |
| 2026-04-23 10:50 | 57.91480 | 56.01150 | 394 ft | 2 kts | 315° |
| 2026-04-23 10:50 | 57.91469 | 56.01172 | 394 ft | 2 kts | 313° |
| 2026-04-23 10:50 | 57.91457 | 56.01195 | 394 ft | 2 kts | 316° |
| 2026-04-23 10:50 | 57.91451 | 56.01222 | 394 ft | 2 kts | 251° |
| 2026-04-23 10:51 | 57.91458 | 56.01250 | 394 ft | 2 kts | 238° |
| 2026-04-23 10:51 | 57.91467 | 56.01276 | 393 ft | 2 kts | 231° |
| 2026-04-23 10:51 | 57.91476 | 56.01296 | 394 ft | 1 kts | 227° |
| 2026-04-23 10:51 | 57.91478 | 56.01299 | 395 ft | 0 kts | 226° |
| 2026-04-23 10:54 | 57.91477 | 56.01297 | 397 ft | 0 kts | 226° |
| 2026-04-23 10:54 | 57.91475 | 56.01294 | 397 ft | 0 kts | 226° |
| 2026-04-23 10:54 | 57.91465 | 56.01275 | 392 ft | 4 kts | 226° |
| 2026-04-23 10:55 | 57.91429 | 56.01256 | 395 ft | 7 kts | 165° |
| 2026-04-23 10:55 | 57.91378 | 56.01340 | 394 ft | 12 kts | 137° |
| 2026-04-23 10:55 | 57.91303 | 56.01477 | 396 ft | 18 kts | 136° |
| 2026-04-23 10:55 | 57.91218 | 56.01648 | 398 ft | 12 kts | 99° |
| 2026-04-23 10:56 | 57.91271 | 56.01787 | 398 ft | 16 kts | 46° |
| 2026-04-23 10:56 | 57.91360 | 56.01960 | 392 ft | 19 kts | 46° |
| 2026-04-23 10:56 | 57.91449 | 56.02130 | 394 ft | 18 kts | 45° |
| 2026-04-23 10:56 | 57.91530 | 56.02286 | 395 ft | 16 kts | 45° |
| 2026-04-23 10:57 | 57.91609 | 56.02441 | 400 ft | 18 kts | 46° |
| 2026-04-23 10:57 | 57.91695 | 56.02607 | 401 ft | 19 kts | 46° |
| 2026-04-23 10:57 | 57.91793 | 56.02798 | 398 ft | 23 kts | 46° |
| 2026-04-23 10:57 | 57.91911 | 56.03028 | 399 ft | 26 kts | 46° |
| 2026-04-23 10:58 | 57.92041 | 56.03278 | 401 ft | 26 kts | 46° |
| 2026-04-23 10:58 | 57.92160 | 56.03509 | 400 ft | 23 kts | 46° |
| 2026-04-23 10:58 | 57.92269 | 56.03721 | 403 ft | 19 kts | 46° |
| 2026-04-23 10:58 | 57.92342 | 56.03860 | 402 ft | 13 kts | 45° |
| 2026-04-23 10:59 | 57.92396 | 56.03958 | 402 ft | 9 kts | 37° |
| 2026-04-23 10:59 | 57.92435 | 56.04018 | 402 ft | 6 kts | 84° |
| 2026-04-23 10:59 | 57.92420 | 56.04032 | 402 ft | 2 kts | 220° |
| 2026-04-23 10:59 | 57.92417 | 56.04021 | 402 ft | 1 kts | 242° |
| 2026-04-23 11:00 | 57.92410 | 56.04001 | 402 ft | 3 kts | 235° |
| 2026-04-23 11:00 | 57.92396 | 56.03970 | 402 ft | 0 kts | 227° |
| 2026-04-23 11:01 | 57.92356 | 56.03889 | 402 ft | 31 kts | 226° |
| 2026-04-23 11:01 | 57.92019 | 56.03238 | 399 ft | 104 kts | 226° |
| 2026-04-23 11:01 | 57.91376 | 56.01993 | 396 ft | 159 kts | 226° |
| 2026-04-23 11:01 | 57.90542 | 56.00366 | 745 ft | 174 kts | 225° |
| 2026-04-23 11:02 | 57.89706 | 55.98732 | 1530 ft | 171 kts | 228° |
| 2026-04-23 11:02 | 57.88892 | 55.97164 | 2104 ft | 173 kts | 227° |
| 2026-04-23 11:02 | 57.88035 | 55.95509 | 2542 ft | 179 kts | 228° |
| 2026-04-23 11:02 | 57.87155 | 55.93804 | 3021 ft | 184 kts | 228° |
| 2026-04-23 11:03 | 57.86278 | 55.92021 | 3549 ft | 187 kts | 234° |
| 2026-04-23 11:03 | 57.85897 | 55.89718 | 4054 ft | 193 kts | 274° |
| 2026-04-23 11:03 | 57.86526 | 55.87433 | 4520 ft | 208 kts | 310° |
| 2026-04-23 11:03 | 57.87706 | 55.85737 | 4981 ft | 220 kts | 324° |
| 2026-04-23 11:04 | 57.89074 | 55.84221 | 5365 ft | 238 kts | 320° |
| 2026-04-23 11:04 | 57.90394 | 55.82177 | 5816 ft | 253 kts | 311° |
| 2026-04-23 11:04 | 57.91671 | 55.79809 | 6453 ft | 261 kts | 310° |
| 2026-04-23 11:04 | 57.92951 | 55.77377 | 7290 ft | 262 kts | 309° |
| 2026-04-23 11:05 | 57.94230 | 55.74915 | 8093 ft | 265 kts | 309° |
| 2026-04-23 11:05 | 57.95537 | 55.72419 | 8839 ft | 269 kts | 310° |
| 2026-04-23 11:05 | 57.96862 | 55.69881 | 9589 ft | 273 kts | 310° |
| 2026-04-23 11:05 | 57.98236 | 55.67257 | 10006 ft | 290 kts | 310° |
| 2026-04-23 11:06 | 58.01136 | 55.61418 | 10699 ft | 319 kts | 306° |
| 2026-04-23 11:06 | 58.02553 | 55.58073 | 11058 ft | 332 kts | 304° |
| 2026-04-23 11:06 | 58.03961 | 55.54571 | 11399 ft | 346 kts | 305° |
| 2026-04-23 11:07 | 58.05434 | 55.50903 | 11914 ft | 354 kts | 304° |
| 2026-04-23 11:07 | 58.06962 | 55.47154 | 12600 ft | 357 kts | 304° |
| 2026-04-23 11:07 | 58.08503 | 55.43434 | 13267 ft | 361 kts | 304° |
| 2026-04-23 11:07 | 58.10051 | 55.39739 | 13850 ft | 365 kts | 305° |
| 2026-04-23 11:08 | 58.11647 | 55.35961 | 14425 ft | 368 kts | 305° |
| 2026-04-23 11:08 | 58.13256 | 55.32160 | 15028 ft | 371 kts | 305° |
| 2026-04-23 11:08 | 58.14877 | 55.28323 | 15620 ft | 374 kts | 305° |
| 2026-04-23 11:08 | 58.16509 | 55.24447 | 16207 ft | 378 kts | 305° |
| 2026-04-23 11:09 | 58.18149 | 55.20539 | 16788 ft | 381 kts | 304° |
| 2026-04-23 11:09 | 58.19802 | 55.16588 | 17357 ft | 384 kts | 304° |
| 2026-04-23 11:09 | 58.21471 | 55.12599 | 17911 ft | 387 kts | 304° |
| 2026-04-23 11:09 | 58.23149 | 55.08579 | 18398 ft | 390 kts | 304° |
| 2026-04-23 11:10 | 58.24838 | 55.04520 | 18900 ft | 392 kts | 304° |
| 2026-04-23 11:10 | 58.26534 | 55.00430 | 19397 ft | 395 kts | 304° |
| 2026-04-23 11:10 | 58.28235 | 54.96316 | 19889 ft | 397 kts | 304° |
| 2026-04-23 11:10 | 58.29947 | 54.92173 | 20385 ft | 399 kts | 304° |
| 2026-04-23 11:11 | 58.31551 | 54.87865 | 20852 ft | 399 kts | 296° |
| 2026-04-23 11:11 | 58.32774 | 54.83139 | 21331 ft | 397 kts | 288° |
| 2026-04-23 11:11 | 58.33635 | 54.78158 | 21785 ft | 397 kts | 284° |
| 2026-04-23 11:11 | 58.34455 | 54.73106 | 22229 ft | 400 kts | 284° |
| 2026-04-23 11:12 | 58.35286 | 54.68033 | 22666 ft | 402 kts | 284° |
| 2026-04-23 11:12 | 58.36125 | 54.62925 | 23077 ft | 405 kts | 284° |
| 2026-04-23 11:12 | 58.36680 | 54.59534 | 23318 ft | 406 kts | 284° |
| 2026-04-23 11:12 | 58.37808 | 54.52620 | 23757 ft | 409 kts | 284° |
| 2026-04-23 11:13 | 58.38366 | 54.49185 | 23969 ft | 411 kts | 284° |
| 2026-04-23 11:13 | 58.39211 | 54.43955 | 24284 ft | 414 kts | 284° |
| 2026-04-23 11:13 | 58.40056 | 54.38700 | 24609 ft | 416 kts | 284° |
| 2026-04-23 11:13 | 58.40903 | 54.33400 | 24914 ft | 419 kts | 284° |
| 2026-04-23 11:14 | 58.41752 | 54.28060 | 25226 ft | 421 kts | 284° |
| 2026-04-23 11:14 | 58.42604 | 54.22683 | 25530 ft | 424 kts | 284° |
| 2026-04-23 11:14 | 58.43458 | 54.17289 | 25825 ft | 426 kts | 284° |
| 2026-04-23 11:14 | 58.44318 | 54.11856 | 26103 ft | 428 kts | 284° |
| 2026-04-23 11:15 | 58.45181 | 54.06393 | 26389 ft | 431 kts | 284° |
| 2026-04-23 11:15 | 58.46044 | 54.00893 | 26685 ft | 433 kts | 284° |
| 2026-04-23 11:15 | 58.46907 | 53.95365 | 26978 ft | 435 kts | 284° |
| 2026-04-23 11:15 | 58.47774 | 53.89800 | 27253 ft | 438 kts | 284° |
| 2026-04-23 11:16 | 58.48645 | 53.84208 | 27534 ft | 440 kts | 285° |
| 2026-04-23 11:16 | 58.49521 | 53.78586 | 27806 ft | 442 kts | 285° |
| 2026-04-23 11:16 | 58.50398 | 53.72952 | 28192 ft | 441 kts | 285° |
| 2026-04-23 11:16 | 58.51271 | 53.67326 | 28576 ft | 441 kts | 285° |
| 2026-04-23 11:17 | 58.52141 | 53.61700 | 28950 ft | 441 kts | 285° |
| 2026-04-23 11:17 | 58.53012 | 53.56056 | 29328 ft | 440 kts | 285° |
| 2026-04-23 11:17 | 58.53861 | 53.50496 | 29674 ft | 440 kts | 285° |
| 2026-04-23 11:17 | 58.54715 | 53.44869 | 29945 ft | 440 kts | 285° |
| 2026-04-23 11:18 | 58.55569 | 53.39240 | 30208 ft | 440 kts | 285° |
| 2026-04-23 11:18 | 58.56424 | 53.33594 | 30486 ft | 441 kts | 285° |
| 2026-04-23 11:18 | 58.57273 | 53.27964 | 30767 ft | 441 kts | 285° |
| 2026-04-23 11:18 | 58.58125 | 53.22296 | 31028 ft | 441 kts | 285° |
| 2026-04-23 11:19 | 58.58969 | 53.16656 | 31296 ft | 441 kts | 285° |
| 2026-04-23 11:19 | 58.59814 | 53.10975 | 31561 ft | 442 kts | 285° |
| 2026-04-23 11:19 | 58.60653 | 53.05311 | 31813 ft | 442 kts | 285° |
| 2026-04-23 11:19 | 58.61494 | 52.99641 | 32066 ft | 442 kts | 285° |
| 2026-04-23 11:20 | 58.62339 | 52.93946 | 32331 ft | 442 kts | 285° |
| 2026-04-23 11:20 | 58.63177 | 52.88274 | 32587 ft | 443 kts | 285° |
| 2026-04-23 11:20 | 58.64014 | 52.82575 | 32846 ft | 443 kts | 285° |
| 2026-04-23 11:20 | 58.64846 | 52.76889 | 33094 ft | 443 kts | 285° |
| 2026-04-23 11:21 | 58.65682 | 52.71175 | 33340 ft | 443 kts | 285° |
| 2026-04-23 11:21 | 58.66515 | 52.65472 | 33535 ft | 444 kts | 285° |
| 2026-04-23 11:21 | 58.67344 | 52.59771 | 33585 ft | 442 kts | 284° |
| 2026-04-23 11:22 | 58.68988 | 52.48399 | 33577 ft | 440 kts | 284° |
| 2026-04-23 11:22 | 58.70611 | 52.37042 | 33574 ft | 440 kts | 284° |
| 2026-04-23 11:23 | 58.72222 | 52.25755 | 33574 ft | 440 kts | 284° |
| 2026-04-23 11:23 | 58.73833 | 52.14375 | 33572 ft | 440 kts | 284° |
| 2026-04-23 11:24 | 58.75430 | 52.02995 | 33572 ft | 440 kts | 284° |
| 2026-04-23 11:24 | 58.77027 | 51.91608 | 33571 ft | 440 kts | 284° |
| 2026-04-23 11:25 | 58.78622 | 51.80195 | 33565 ft | 440 kts | 284° |
| 2026-04-23 11:25 | 58.80201 | 51.68789 | 33561 ft | 440 kts | 284° |
| 2026-04-23 11:26 | 58.81762 | 51.57365 | 33560 ft | 440 kts | 284° |
| 2026-04-23 11:26 | 58.83314 | 51.45930 | 33557 ft | 440 kts | 284° |
| 2026-04-23 11:27 | 58.84861 | 51.34481 | 33554 ft | 440 kts | 283° |
| 2026-04-23 11:27 | 58.86399 | 51.23002 | 33552 ft | 440 kts | 283° |
| 2026-04-23 11:28 | 58.87909 | 51.11594 | 33548 ft | 440 kts | 283° |
| 2026-04-23 11:28 | 58.89431 | 51.00107 | 33549 ft | 440 kts | 283° |
| 2026-04-23 11:29 | 58.90942 | 50.88617 | 33546 ft | 440 kts | 283° |
| 2026-04-23 11:29 | 58.92438 | 50.77117 | 33538 ft | 440 kts | 283° |
| 2026-04-23 11:30 | 58.93915 | 50.65606 | 33541 ft | 440 kts | 283° |
| 2026-04-23 11:30 | 58.95503 | 50.54135 | 33534 ft | 440 kts | 285° |
| 2026-04-23 11:31 | 58.97289 | 50.42770 | 33534 ft | 440 kts | 286° |
| 2026-04-23 11:31 | 58.99071 | 50.31398 | 33531 ft | 440 kts | 285° |
| 2026-04-23 11:32 | 59.00776 | 50.19996 | 33527 ft | 440 kts | 285° |
| 2026-04-23 11:32 | 59.02440 | 50.08553 | 33528 ft | 440 kts | 285° |
| 2026-04-23 11:33 | 59.04093 | 49.97103 | 33523 ft | 440 kts | 285° |
| 2026-04-23 11:33 | 59.05747 | 49.85657 | 33519 ft | 440 kts | 285° |
| 2026-04-23 11:34 | 59.07394 | 49.74202 | 33519 ft | 440 kts | 284° |
| 2026-04-23 11:34 | 59.09012 | 49.62810 | 33517 ft | 440 kts | 284° |
| 2026-04-23 11:35 | 59.10644 | 49.51338 | 33512 ft | 440 kts | 284° |
| 2026-04-23 11:35 | 59.12274 | 49.39849 | 33509 ft | 439 kts | 284° |
| 2026-04-23 11:36 | 59.13880 | 49.28365 | 33504 ft | 439 kts | 284° |
| 2026-04-23 11:36 | 59.15476 | 49.16863 | 33503 ft | 439 kts | 284° |
| 2026-04-23 11:37 | 59.17060 | 49.05354 | 33496 ft | 439 kts | 284° |
| 2026-04-23 11:37 | 59.18633 | 48.93827 | 33497 ft | 439 kts | 284° |
| 2026-04-23 11:38 | 59.20198 | 48.82297 | 33488 ft | 439 kts | 284° |
| 2026-04-23 11:38 | 59.21629 | 48.70716 | 33486 ft | 439 kts | 281° |
| 2026-04-23 11:39 | 59.22842 | 48.59035 | 33483 ft | 438 kts | 280° |
| 2026-04-23 11:39 | 59.24004 | 48.47345 | 33480 ft | 438 kts | 280° |
| 2026-04-23 11:40 | 59.25205 | 48.35662 | 33473 ft | 438 kts | 281° |
| 2026-04-23 11:40 | 59.26430 | 48.23993 | 33471 ft | 438 kts | 280° |
| 2026-04-23 11:41 | 59.27642 | 48.12307 | 33457 ft | 438 kts | 280° |
| 2026-04-23 11:41 | 59.28835 | 48.00598 | 33455 ft | 438 kts | 280° |
| 2026-04-23 11:42 | 59.30006 | 47.88956 | 33452 ft | 438 kts | 280° |
| 2026-04-23 11:42 | 59.31182 | 47.77236 | 33447 ft | 438 kts | 280° |
| 2026-04-23 11:43 | 59.32346 | 47.65511 | 33437 ft | 438 kts | 279° |
| 2026-04-23 11:43 | 59.33494 | 47.53775 | 33448 ft | 439 kts | 278° |
| 2026-04-23 11:44 | 59.34629 | 47.42069 | 33417 ft | 437 kts | 278° |
| 2026-04-23 11:44 | 59.35749 | 47.30343 | 33409 ft | 438 kts | 278° |
| 2026-04-23 11:45 | 59.36855 | 47.18597 | 33405 ft | 438 kts | 278° |
| 2026-04-23 11:45 | 59.37960 | 47.06825 | 33403 ft | 439 kts | 278° |
| 2026-04-23 11:46 | 59.38877 | 46.97034 | 33398 ft | 439 kts | 278° |
| 2026-04-23 11:46 | 59.39972 | 46.85233 | 33399 ft | 439 kts | 278° |
| 2026-04-23 11:47 | 59.41057 | 46.73421 | 33394 ft | 440 kts | 278° |
| 2026-04-23 11:47 | 59.42127 | 46.61582 | 33387 ft | 440 kts | 278° |
| 2026-04-23 11:48 | 59.43183 | 46.49730 | 33387 ft | 440 kts | 278° |
| 2026-04-23 11:48 | 59.44227 | 46.37878 | 33386 ft | 440 kts | 277° |
| 2026-04-23 11:49 | 59.45268 | 46.26012 | 33384 ft | 440 kts | 278° |
| 2026-04-23 11:49 | 59.46302 | 46.14145 | 33378 ft | 441 kts | 277° |
| 2026-04-23 11:50 | 59.47323 | 46.02244 | 33382 ft | 441 kts | 277° |
| 2026-04-23 11:50 | 59.48327 | 45.90334 | 33377 ft | 441 kts | 277° |
| 2026-04-23 11:51 | 59.49327 | 45.78394 | 33370 ft | 442 kts | 277° |
| 2026-04-23 11:51 | 59.50316 | 45.66441 | 33375 ft | 442 kts | 277° |
| 2026-04-23 11:52 | 59.51291 | 45.54493 | 33368 ft | 442 kts | 277° |
| 2026-04-23 11:52 | 59.52203 | 45.42574 | 33361 ft | 442 kts | 276° |
| 2026-04-23 11:53 | 59.52957 | 45.30472 | 33357 ft | 442 kts | 275° |
| 2026-04-23 11:53 | 59.53652 | 45.18487 | 33357 ft | 443 kts | 275° |
| 2026-04-23 11:54 | 59.54368 | 45.06417 | 33356 ft | 443 kts | 275° |
| 2026-04-23 11:54 | 59.55100 | 44.94301 | 33358 ft | 444 kts | 275° |
| 2026-04-23 11:55 | 59.55818 | 44.82202 | 33357 ft | 444 kts | 275° |
| 2026-04-23 11:55 | 59.56535 | 44.70148 | 33358 ft | 445 kts | 276° |
| 2026-04-23 11:56 | 59.57400 | 44.57986 | 33356 ft | 445 kts | 277° |
| 2026-04-23 11:56 | 59.58309 | 44.45967 | 33358 ft | 445 kts | 277° |
| 2026-04-23 11:57 | 59.59188 | 44.33833 | 33367 ft | 446 kts | 276° |
| 2026-04-23 11:57 | 59.60021 | 44.21686 | 33365 ft | 446 kts | 276° |
| 2026-04-23 11:58 | 59.60837 | 44.09528 | 33372 ft | 446 kts | 276° |
| 2026-04-23 11:58 | 59.61651 | 43.97360 | 33373 ft | 447 kts | 276° |
| 2026-04-23 11:59 | 59.62466 | 43.85187 | 33383 ft | 447 kts | 276° |
| 2026-04-23 11:59 | 59.63266 | 43.73008 | 33388 ft | 447 kts | 276° |
| 2026-04-23 12:00 | 59.64044 | 43.60785 | 33395 ft | 447 kts | 276° |
| 2026-04-23 12:00 | 59.64811 | 43.48562 | 33399 ft | 448 kts | 276° |
| 2026-04-23 12:01 | 59.65574 | 43.36409 | 33411 ft | 448 kts | 276° |
| 2026-04-23 12:01 | 59.66336 | 43.24168 | 33415 ft | 448 kts | 276° |
| 2026-04-23 12:02 | 59.67082 | 43.11933 | 33424 ft | 448 kts | 276° |
| 2026-04-23 12:02 | 59.67804 | 42.99691 | 33425 ft | 448 kts | 275° |
| 2026-04-23 12:03 | 59.68522 | 42.87349 | 33433 ft | 448 kts | 275° |
| 2026-04-23 12:03 | 59.69236 | 42.75089 | 33445 ft | 448 kts | 276° |
| 2026-04-23 12:04 | 59.69925 | 42.62899 | 33442 ft | 448 kts | 275° |
| 2026-04-23 12:04 | 59.70585 | 42.50641 | 33440 ft | 447 kts | 275° |
| 2026-04-23 12:05 | 59.71217 | 42.38376 | 33447 ft | 448 kts | 275° |
| 2026-04-23 12:05 | 59.71832 | 42.26080 | 33457 ft | 448 kts | 275° |
| 2026-04-23 12:06 | 59.72454 | 42.13781 | 33461 ft | 449 kts | 275° |
| 2026-04-23 12:06 | 59.73374 | 41.95295 | 33464 ft | 449 kts | 275° |
| 2026-04-23 12:07 | 59.73966 | 41.82944 | 33466 ft | 449 kts | 275° |
| 2026-04-23 12:07 | 59.74545 | 41.70685 | 33471 ft | 449 kts | 275° |
| 2026-04-23 12:08 | 59.75119 | 41.58334 | 33475 ft | 450 kts | 276° |
| 2026-04-23 12:08 | 59.76014 | 41.46042 | 33483 ft | 450 kts | 279° |
| 2026-04-23 12:09 | 59.77151 | 41.33836 | 33486 ft | 450 kts | 280° |
| 2026-04-23 12:09 | 59.78251 | 41.21579 | 33488 ft | 450 kts | 279° |
| 2026-04-23 12:10 | 59.79247 | 41.09283 | 33486 ft | 451 kts | 279° |
| 2026-04-23 12:10 | 59.80209 | 40.96960 | 33485 ft | 451 kts | 279° |
| 2026-04-23 12:11 | 59.81169 | 40.84627 | 33484 ft | 452 kts | 279° |
| 2026-04-23 12:11 | 59.82136 | 40.72283 | 33489 ft | 452 kts | 279° |
| 2026-04-23 12:12 | 59.83096 | 40.59907 | 33491 ft | 453 kts | 279° |
| 2026-04-23 12:12 | 59.84045 | 40.47534 | 33495 ft | 453 kts | 279° |
| 2026-04-23 12:13 | 59.84977 | 40.35135 | 33498 ft | 453 kts | 279° |
| 2026-04-23 12:13 | 59.85900 | 40.22708 | 33501 ft | 453 kts | 279° |
| 2026-04-23 12:14 | 59.86812 | 40.10287 | 33506 ft | 454 kts | 279° |
| 2026-04-23 12:14 | 59.87712 | 39.97852 | 33512 ft | 454 kts | 279° |
| 2026-04-23 12:15 | 59.88600 | 39.85404 | 33516 ft | 454 kts | 279° |
| 2026-04-23 12:15 | 59.89478 | 39.72957 | 33519 ft | 454 kts | 279° |
| 2026-04-23 12:16 | 59.90332 | 39.60491 | 33520 ft | 454 kts | 279° |
| 2026-04-23 12:16 | 59.91182 | 39.48030 | 33519 ft | 454 kts | 279° |
| 2026-04-23 12:17 | 59.92023 | 39.35548 | 33526 ft | 454 kts | 279° |
| 2026-04-23 12:17 | 59.92846 | 39.23129 | 33524 ft | 454 kts | 279° |
| 2026-04-23 12:18 | 59.93666 | 39.10630 | 33525 ft | 454 kts | 279° |
| 2026-04-23 12:18 | 59.94477 | 38.98125 | 33528 ft | 454 kts | 279° |
| 2026-04-23 12:19 | 59.95140 | 38.87711 | 33534 ft | 454 kts | 279° |
| 2026-04-23 12:19 | 59.95921 | 38.75185 | 33534 ft | 455 kts | 279° |
| 2026-04-23 12:20 | 59.96692 | 38.62637 | 33536 ft | 455 kts | 279° |
| 2026-04-23 12:20 | 59.97459 | 38.50100 | 33540 ft | 455 kts | 279° |
| 2026-04-23 12:21 | 59.98212 | 38.37558 | 33541 ft | 455 kts | 279° |
| 2026-04-23 12:21 | 59.98949 | 38.24957 | 33553 ft | 455 kts | 279° |
| 2026-04-23 12:22 | 59.99678 | 38.12376 | 33548 ft | 456 kts | 278° |
| 2026-04-23 12:22 | 60.00393 | 37.99781 | 33561 ft | 456 kts | 278° |
| 2026-04-23 12:23 | 60.01093 | 37.87185 | 33563 ft | 456 kts | 278° |
| 2026-04-23 12:23 | 60.01778 | 37.74586 | 33563 ft | 456 kts | 279° |
| 2026-04-23 12:24 | 60.02465 | 37.61968 | 33563 ft | 456 kts | 279° |
| 2026-04-23 12:24 | 60.03140 | 37.49425 | 33571 ft | 456 kts | 279° |
| 2026-04-23 12:25 | 60.03799 | 37.36803 | 33580 ft | 456 kts | 279° |
| 2026-04-23 12:25 | 60.04447 | 37.24168 | 33582 ft | 456 kts | 279° |
| 2026-04-23 12:26 | 60.05080 | 37.11504 | 33596 ft | 456 kts | 279° |
| 2026-04-23 12:26 | 60.05694 | 36.98866 | 33601 ft | 456 kts | 279° |
| 2026-04-23 12:27 | 60.06302 | 36.86211 | 33611 ft | 456 kts | 279° |
| 2026-04-23 12:27 | 60.06897 | 36.73567 | 33616 ft | 456 kts | 279° |
| 2026-04-23 12:28 | 60.07480 | 36.60904 | 33628 ft | 456 kts | 279° |
| 2026-04-23 12:28 | 60.08055 | 36.48249 | 33625 ft | 456 kts | 279° |
| 2026-04-23 12:29 | 60.08619 | 36.35593 | 33629 ft | 456 kts | 279° |
| 2026-04-23 12:29 | 60.09170 | 36.22936 | 33640 ft | 456 kts | 279° |
| 2026-04-23 12:30 | 60.09694 | 36.10233 | 33633 ft | 457 kts | 279° |
| 2026-04-23 12:30 | 60.10206 | 35.97554 | 33646 ft | 456 kts | 279° |
| 2026-04-23 12:31 | 60.10723 | 35.84872 | 33651 ft | 456 kts | 279° |
| 2026-04-23 12:31 | 60.11230 | 35.72174 | 33649 ft | 456 kts | 279° |
| 2026-04-23 12:32 | 60.11718 | 35.59493 | 33661 ft | 456 kts | 279° |
| 2026-04-23 12:32 | 60.12195 | 35.46802 | 33662 ft | 456 kts | 279° |
| 2026-04-23 12:33 | 60.12656 | 35.34111 | 33672 ft | 456 kts | 279° |
| 2026-04-23 12:33 | 60.13099 | 35.21404 | 33678 ft | 456 kts | 279° |
| 2026-04-23 12:34 | 60.13540 | 35.08690 | 33687 ft | 456 kts | 279° |
| 2026-04-23 12:34 | 60.13963 | 34.95986 | 33687 ft | 456 kts | 279° |
| 2026-04-23 12:35 | 60.14371 | 34.83346 | 33697 ft | 456 kts | 279° |
| 2026-04-23 12:35 | 60.14774 | 34.70647 | 33700 ft | 455 kts | 279° |
| 2026-04-23 12:36 | 60.15168 | 34.57923 | 33704 ft | 456 kts | 279° |
| 2026-04-23 12:36 | 60.15552 | 34.45214 | 33705 ft | 456 kts | 279° |
| 2026-04-23 12:37 | 60.15908 | 34.32497 | 33709 ft | 456 kts | 279° |
| 2026-04-23 12:37 | 60.16254 | 34.19787 | 33712 ft | 456 kts | 279° |
| 2026-04-23 12:38 | 60.16594 | 34.07090 | 33714 ft | 455 kts | 279° |
| 2026-04-23 12:38 | 60.16923 | 33.94378 | 33724 ft | 455 kts | 279° |
| 2026-04-23 12:39 | 60.17239 | 33.81738 | 33725 ft | 455 kts | 279° |
| 2026-04-23 12:39 | 60.17543 | 33.69038 | 33721 ft | 455 kts | 279° |
| 2026-04-23 12:40 | 60.17838 | 33.56300 | 33724 ft | 455 kts | 279° |
| 2026-04-23 12:40 | 60.18113 | 33.43582 | 33723 ft | 455 kts | 279° |
| 2026-04-23 12:41 | 60.18377 | 33.30884 | 33726 ft | 455 kts | 279° |
| 2026-04-23 12:41 | 60.18523 | 33.18152 | 33728 ft | 461 kts | 272° |
| 2026-04-23 12:42 | 60.17134 | 33.05368 | 33730 ft | 472 kts | 261° |
| 2026-04-23 12:42 | 60.15326 | 32.92673 | 33731 ft | 473 kts | 261° |
| 2026-04-23 12:43 | 60.13509 | 32.79989 | 33734 ft | 473 kts | 261° |
| 2026-04-23 12:43 | 60.12590 | 32.73601 | 33088 ft | 478 kts | 262° |
| 2026-04-23 12:43 | 60.11663 | 32.67182 | 32324 ft | 479 kts | 262° |
| 2026-04-23 12:44 | 60.10732 | 32.60779 | 31590 ft | 480 kts | 262° |
| 2026-04-23 12:44 | 60.09792 | 32.54358 | 30863 ft | 480 kts | 263° |
| 2026-04-23 12:44 | 60.08847 | 32.47938 | 30159 ft | 480 kts | 263° |
| 2026-04-23 12:44 | 60.07886 | 32.41524 | 29375 ft | 480 kts | 263° |
| 2026-04-23 12:45 | 60.06925 | 32.35111 | 28460 ft | 479 kts | 263° |
| 2026-04-23 12:45 | 60.05974 | 32.28728 | 27392 ft | 476 kts | 263° |
| 2026-04-23 12:45 | 60.04991 | 32.22432 | 26384 ft | 473 kts | 262° |
| 2026-04-23 12:45 | 60.03957 | 32.16199 | 25409 ft | 469 kts | 261° |
| 2026-04-23 12:46 | 60.02887 | 32.10044 | 24460 ft | 466 kts | 261° |
| 2026-04-23 12:46 | 60.01807 | 32.03964 | 23549 ft | 461 kts | 261° |
| 2026-04-23 12:46 | 60.00737 | 31.97950 | 22510 ft | 456 kts | 261° |
| 2026-04-23 12:46 | 59.99685 | 31.91989 | 21468 ft | 451 kts | 261° |
| 2026-04-23 12:47 | 59.98657 | 31.86094 | 20457 ft | 447 kts | 260° |
| 2026-04-23 12:47 | 59.97659 | 31.80324 | 19505 ft | 442 kts | 260° |
| 2026-04-23 12:47 | 59.96648 | 31.74479 | 18541 ft | 438 kts | 259° |
| 2026-04-23 12:47 | 59.95658 | 31.68772 | 17551 ft | 433 kts | 258° |
| 2026-04-23 12:48 | 59.94682 | 31.63174 | 16522 ft | 429 kts | 258° |
| 2026-04-23 12:48 | 59.93703 | 31.57592 | 15522 ft | 424 kts | 257° |
| 2026-04-23 12:48 | 59.92731 | 31.52074 | 14542 ft | 418 kts | 257° |
| 2026-04-23 12:48 | 59.91780 | 31.46708 | 13583 ft | 402 kts | 256° |
| 2026-04-23 12:49 | 59.90863 | 31.41554 | 12535 ft | 387 kts | 256° |
| 2026-04-23 12:49 | 59.89973 | 31.36570 | 11515 ft | 375 kts | 255° |
| 2026-04-23 12:49 | 59.89112 | 31.31779 | 10805 ft | 357 kts | 255° |
| 2026-04-23 12:49 | 59.88294 | 31.27255 | 10291 ft | 337 kts | 255° |
| 2026-04-23 12:50 | 59.87525 | 31.22997 | 9935 ft | 315 kts | 255° |
| 2026-04-23 12:50 | 59.86735 | 31.19076 | 9679 ft | 297 kts | 244° |
| 2026-04-23 12:50 | 59.85452 | 31.15946 | 9243 ft | 289 kts | 221° |
| 2026-04-23 12:50 | 59.83733 | 31.14007 | 8762 ft | 280 kts | 204° |
| 2026-04-23 12:51 | 59.82549 | 31.13028 | 8459 ft | 276 kts | 204° |
| 2026-04-23 12:51 | 59.80184 | 31.11090 | 7849 ft | 273 kts | 204° |
| 2026-04-23 12:51 | 59.79023 | 31.10139 | 7545 ft | 272 kts | 204° |
| 2026-04-23 12:51 | 59.77281 | 31.08711 | 7102 ft | 271 kts | 204° |
| 2026-04-23 12:52 | 59.75475 | 31.07517 | 6668 ft | 276 kts | 191° |
| 2026-04-23 12:52 | 59.73557 | 31.07075 | 6313 ft | 275 kts | 186° |
| 2026-04-23 12:52 | 59.71689 | 31.06706 | 6111 ft | 263 kts | 186° |
| 2026-04-23 12:52 | 59.69915 | 31.06351 | 5955 ft | 249 kts | 187° |
| 2026-04-23 12:53 | 59.68245 | 31.05864 | 5858 ft | 237 kts | 197° |
| 2026-04-23 12:53 | 59.66740 | 31.04678 | 5783 ft | 230 kts | 212° |
| 2026-04-23 12:53 | 59.65331 | 31.03169 | 5799 ft | 230 kts | 211° |
| 2026-04-23 12:53 | 59.63914 | 31.01671 | 5802 ft | 231 kts | 211° |
| 2026-04-23 12:54 | 59.62492 | 31.00178 | 5815 ft | 231 kts | 211° |
| 2026-04-23 12:54 | 59.61122 | 30.98536 | 5796 ft | 230 kts | 222° |
| 2026-04-23 12:54 | 59.59983 | 30.96296 | 5818 ft | 229 kts | 236° |
| 2026-04-23 12:54 | 59.59215 | 30.93657 | 5771 ft | 218 kts | 257° |
| 2026-04-23 12:55 | 59.59010 | 30.90763 | 5662 ft | 214 kts | 280° |
| 2026-04-23 12:55 | 59.59392 | 30.87969 | 5563 ft | 209 kts | 302° |
| 2026-04-23 12:55 | 59.60266 | 30.85728 | 5402 ft | 205 kts | 322° |
| 2026-04-23 12:55 | 59.61464 | 30.84334 | 5217 ft | 198 kts | 342° |
| 2026-04-23 12:56 | 59.62800 | 30.83722 | 5040 ft | 197 kts | 349° |
| 2026-04-23 12:56 | 59.64146 | 30.83178 | 4856 ft | 197 kts | 349° |
| 2026-04-23 12:56 | 59.65482 | 30.82630 | 4665 ft | 196 kts | 349° |
| 2026-04-23 12:56 | 59.66815 | 30.82081 | 4485 ft | 195 kts | 349° |
| 2026-04-23 12:57 | 59.68130 | 30.81538 | 4288 ft | 195 kts | 349° |
| 2026-04-23 12:57 | 59.69455 | 30.80991 | 4106 ft | 194 kts | 349° |
| 2026-04-23 12:57 | 59.70780 | 30.80441 | 3919 ft | 194 kts | 349° |
| 2026-04-23 12:57 | 59.72100 | 30.79890 | 3780 ft | 194 kts | 349° |
| 2026-04-23 12:58 | 59.73425 | 30.79340 | 3651 ft | 194 kts | 349° |
| 2026-04-23 12:58 | 59.74746 | 30.78793 | 3513 ft | 194 kts | 349° |
| 2026-04-23 12:58 | 59.76070 | 30.78244 | 3383 ft | 194 kts | 349° |
| 2026-04-23 12:58 | 59.77353 | 30.77490 | 3260 ft | 190 kts | 333° |
| 2026-04-23 12:59 | 59.78341 | 30.75741 | 3154 ft | 194 kts | 308° |
| 2026-04-23 12:59 | 59.78807 | 30.73196 | 3043 ft | 202 kts | 280° |
| 2026-04-23 12:59 | 59.78573 | 30.70399 | 2943 ft | 212 kts | 250° |
| 2026-04-23 12:59 | 59.77887 | 30.67816 | 2847 ft | 214 kts | 246° |
| 2026-04-23 13:00 | 59.77179 | 30.65232 | 2741 ft | 213 kts | 246° |
| 2026-04-23 13:00 | 59.76482 | 30.62696 | 2631 ft | 205 kts | 246° |
| 2026-04-23 13:00 | 59.75814 | 30.60282 | 2549 ft | 196 kts | 246° |
| 2026-04-23 13:00 | 59.75238 | 30.57921 | 2452 ft | 183 kts | 259° |
| 2026-04-23 13:01 | 59.75075 | 30.55495 | 2374 ft | 173 kts | 280° |
| 2026-04-23 13:01 | 59.75319 | 30.53219 | 2293 ft | 168 kts | 290° |
| 2026-04-23 13:01 | 59.75630 | 30.50999 | 2216 ft | 166 kts | 292° |
| 2026-04-23 13:01 | 59.75955 | 30.48793 | 2143 ft | 166 kts | 293° |
| 2026-04-23 13:02 | 59.76270 | 30.46681 | 2098 ft | 154 kts | 292° |
| 2026-04-23 13:02 | 59.76565 | 30.44713 | 1918 ft | 148 kts | 293° |
| 2026-04-23 13:02 | 59.76858 | 30.42774 | 1713 ft | 146 kts | 293° |
| 2026-04-23 13:02 | 59.77148 | 30.40851 | 1523 ft | 145 kts | 292° |
| 2026-04-23 13:03 | 59.77436 | 30.38937 | 1303 ft | 144 kts | 292° |
| 2026-04-23 13:03 | 59.77721 | 30.37038 | 1071 ft | 143 kts | 291° |
| 2026-04-23 13:03 | 59.78007 | 30.35131 | 850 ft | 144 kts | 290° |
| 2026-04-23 13:03 | 59.78295 | 30.33211 | 647 ft | 145 kts | 289° |
| 2026-04-23 13:04 | 59.78577 | 30.31314 | 457 ft | 144 kts | 289° |
| 2026-04-23 13:04 | 59.78865 | 30.29381 | 252 ft | 144 kts | 290° |
| 2026-04-23 13:04 | 59.79123 | 30.27634 | 100 ft | 142 kts | 289° |
| 2026-04-23 13:04 | 59.79345 | 30.26157 | 87 ft | 117 kts | 287° |
| 2026-04-23 13:05 | 59.79529 | 30.24943 | 88 ft | 66 kts | 287° |
| 2026-04-23 13:05 | 59.79616 | 30.24345 | 88 ft | 32 kts | 287° |
| 2026-04-23 13:05 | 59.79674 | 30.23969 | 85 ft | 27 kts | 287° |
| 2026-04-23 13:05 | 59.79722 | 30.23650 | 85 ft | 22 kts | 286° |
| 2026-04-23 13:06 | 59.79854 | 30.23158 | 85 ft | 15 kts | 313° |
| 2026-04-23 13:06 | 59.79904 | 30.23054 | 85 ft | 10 kts | 314° |
| 2026-04-23 13:06 | 59.79963 | 30.23041 | 72 ft | 9 kts | 34° |
| 2026-04-23 13:07 | 59.79974 | 30.23136 | 85 ft | 7 kts | 102° |
| 2026-04-23 13:07 | 59.79957 | 30.23257 | 87 ft | 11 kts | 105° |
| 2026-04-23 13:07 | 59.79936 | 30.23395 | 83 ft | 10 kts | 106° |
| 2026-04-23 13:07 | 59.79915 | 30.23536 | 87 ft | 13 kts | 106° |
| 2026-04-23 13:08 | 59.79889 | 30.23716 | 82 ft | 13 kts | 106° |
| 2026-04-23 13:08 | 59.79862 | 30.23897 | 83 ft | 15 kts | 106° |
| 2026-04-23 13:08 | 59.79830 | 30.24108 | 85 ft | 17 kts | 106° |
| 2026-04-23 13:08 | 59.79793 | 30.24363 | 83 ft | 20 kts | 106° |
| 2026-04-23 13:09 | 59.79750 | 30.24649 | 88 ft | 23 kts | 106° |
| 2026-04-23 13:09 | 59.79701 | 30.24980 | 86 ft | 26 kts | 107° |
| 2026-04-23 13:09 | 59.79652 | 30.25313 | 89 ft | 25 kts | 106° |
| 2026-04-23 13:09 | 59.79605 | 30.25634 | 87 ft | 24 kts | 106° |
| 2026-04-23 13:10 | 59.79558 | 30.25942 | 85 ft | 23 kts | 106° |
| 2026-04-23 13:10 | 59.79516 | 30.26231 | 86 ft | 16 kts | 105° |
| 2026-04-23 13:10 | 59.79526 | 30.26362 | 87 ft | 10 kts | 31° |
| 2026-04-23 13:10 | 59.79594 | 30.26406 | 86 ft | 10 kts | 16° |
| 2026-04-23 13:11 | 59.79662 | 30.26447 | 84 ft | 10 kts | 17° |
| 2026-04-23 13:11 | 59.79727 | 30.26485 | 84 ft | 10 kts | 16° |
| 2026-04-23 13:11 | 59.79790 | 30.26522 | 87 ft | 9 kts | 16° |
| 2026-04-23 13:11 | 59.79821 | 30.26580 | 89 ft | 5 kts | 92° |
| 2026-04-23 13:12 | 59.79816 | 30.26638 | 85 ft | 3 kts | 106° |
| 2026-04-23 13:12 | 59.79814 | 30.26651 | 85 ft | 0 kts | 106° |